createdAt,value
2019-06-08T00:00:52.426Z,7.73
2019-06-08T00:03:21.183Z,7.50
2019-06-08T00:05:50.000Z,7.50
2019-06-08T00:08:19.198Z,7.63
2019-06-08T00:10:48.457Z,7.83
2019-06-08T00:13:17.152Z,7.87
2019-06-08T00:15:45.867Z,8.00
2019-06-08T00:18:15.267Z,8.07
2019-06-08T00:20:44.257Z,7.67
2019-06-08T00:23:13.744Z,7.80
2019-06-08T00:25:42.493Z,8.30
2019-06-08T00:28:11.190Z,7.90
2019-06-08T00:30:41.385Z,7.70
2019-06-08T00:33:10.389Z,7.97
2019-06-08T00:35:39.107Z,7.77
2019-06-08T00:38:07.852Z,7.77
2019-06-08T00:40:36.556Z,8.10
2019-06-08T00:43:05.267Z,8.37
2019-06-08T00:45:34.022Z,7.70
2019-06-08T00:48:02.728Z,7.93
2019-06-08T00:50:31.457Z,8.30
2019-06-08T00:53:00.181Z,7.87
2019-06-08T00:55:29.894Z,7.70
2019-06-08T00:57:58.777Z,7.77
2019-06-08T01:00:27.532Z,8.23
2019-06-08T01:02:56.251Z,7.67
2019-06-08T01:05:26.091Z,7.63
2019-06-08T01:07:55.051Z,7.80
2019-06-08T01:10:25.419Z,7.60
2019-06-08T01:12:54.392Z,8.23
2019-06-08T01:15:29.678Z,7.77
2019-06-08T01:18:02.783Z,7.90
2019-06-08T01:20:25.631Z,7.93
2019-06-08T01:22:54.573Z,8.23
2019-06-08T01:25:23.681Z,8.37
2019-06-08T01:27:52.617Z,8.20
2019-06-08T01:30:22.168Z,8.37
2019-06-08T01:32:51.223Z,8.77
2019-06-08T01:35:20.809Z,8.07
2019-06-08T01:37:49.761Z,8.20
2019-06-08T01:40:18.474Z,8.33
2019-06-08T01:42:47.179Z,8.20
2019-06-08T01:45:18.372Z,8.13
2019-06-08T01:47:47.090Z,8.20
2019-06-08T01:50:15.858Z,8.27
2019-06-08T01:52:44.558Z,8.00
2019-06-08T01:55:13.362Z,8.40
2019-06-08T01:57:42.124Z,8.27
2019-06-08T02:00:29.392Z,8.43
2019-06-08T02:02:41.491Z,8.30
2019-06-08T02:05:10.310Z,8.17
2019-06-08T02:07:39.040Z,8.00
2019-06-08T02:10:08.775Z,8.37
2019-06-08T02:12:37.485Z,8.70
2019-06-08T02:15:07.498Z,8.63
2019-06-08T02:17:36.722Z,8.30
2019-06-08T02:20:08.491Z,8.80
2019-06-08T02:22:37.341Z,8.40
2019-06-08T02:25:08.353Z,8.40
2019-06-08T02:27:37.558Z,8.63
2019-06-08T02:30:09.443Z,8.67
2019-06-08T02:32:38.146Z,8.63
2019-06-08T02:35:07.494Z,9.37
2019-06-08T02:37:38.322Z,8.97
2019-06-08T02:40:07.050Z,8.77
2019-06-08T02:42:37.209Z,8.33
2019-06-08T02:45:07.667Z,8.40
2019-06-08T02:47:36.813Z,8.77
2019-06-08T02:50:07.667Z,8.63
2019-06-08T02:52:40.612Z,9.37
2019-06-08T02:55:09.616Z,8.93
2019-06-08T02:57:40.045Z,8.83
2019-06-08T03:00:10.505Z,8.87
2019-06-08T03:02:42.366Z,8.70
2019-06-08T03:05:11.877Z,8.90
2019-06-08T03:07:42.760Z,8.83
2019-06-08T03:10:12.411Z,8.57
2019-06-08T03:12:42.727Z,8.57
2019-06-08T03:15:11.951Z,7.93
2019-06-08T03:17:42.083Z,8.40
2019-06-08T03:20:11.045Z,8.20
2019-06-08T03:22:41.882Z,7.67
2019-06-08T03:25:10.183Z,7.57
2019-06-08T03:27:40.637Z,7.47
2019-06-08T03:30:17.044Z,7.33
2019-06-08T03:32:47.263Z,6.90
2019-06-08T03:35:10.248Z,7.77
2019-06-08T03:37:40.052Z,7.43
2019-06-08T03:40:09.602Z,7.30
2019-06-08T03:42:38.289Z,6.97
2019-06-08T03:45:07.795Z,6.43
2019-06-08T03:47:37.293Z,7.17
2019-06-08T03:50:08.528Z,7.17
2019-06-08T03:52:37.890Z,7.10
2019-06-08T03:55:07.829Z,7.17
2019-06-08T03:57:38.222Z,6.80
2019-06-08T04:00:13.329Z,7.10
2019-06-08T04:02:39.835Z,6.90
2019-06-08T04:05:10.238Z,7.10
2019-06-08T04:07:39.879Z,6.50
2019-06-08T04:10:10.030Z,6.90
2019-06-08T04:12:39.955Z,6.97
2019-06-08T04:15:08.934Z,6.40
2019-06-08T04:17:37.897Z,6.60
2019-06-08T04:20:11.508Z,6.50
2019-06-08T04:22:42.111Z,6.97
2019-06-08T04:41:43.155Z,8.80
2019-06-08T04:44:13.099Z,8.50
2019-06-08T04:46:43.252Z,8.50
2019-06-08T04:49:12.270Z,7.50
2019-06-08T04:51:42.414Z,7.93
2019-06-08T04:54:14.421Z,8.73
2019-06-08T04:56:42.777Z,8.70
2019-06-08T04:59:11.818Z,8.70
2019-06-08T05:01:40.890Z,8.30
2019-06-08T05:04:09.757Z,8.70
2019-06-08T05:06:39.008Z,9.10
2019-06-08T05:09:08.650Z,8.47
2019-06-08T05:11:38.940Z,9.00
2019-06-08T05:14:09.491Z,8.93
2019-06-08T05:16:39.116Z,8.77
2019-06-08T05:19:07.990Z,9.43
2019-06-08T05:21:36.695Z,9.40
2019-06-08T05:24:05.401Z,9.70
2019-06-08T05:26:34.150Z,9.63
2019-06-08T05:29:02.872Z,10.00
2019-06-08T05:31:31.582Z,9.50
2019-06-08T05:34:00.334Z,9.67
2019-06-08T05:36:29.034Z,9.80
2019-06-08T05:38:57.854Z,10.73
2019-06-08T05:41:26.569Z,9.67
2019-06-08T05:43:55.277Z,10.03
2019-06-08T05:46:24.081Z,10.23
2019-06-08T05:48:52.801Z,10.08
2019-06-08T05:51:21.510Z,9.95
2019-06-08T05:53:50.334Z,10.00
2019-06-08T05:56:19.103Z,10.80
2019-06-08T05:58:48.134Z,10.50
2019-06-08T06:01:17.050Z,10.50
2019-06-08T06:03:46.528Z,9.98
2019-06-08T06:06:15.552Z,10.08
2019-06-08T06:08:44.654Z,10.48
2019-06-08T06:11:13.507Z,10.75
2019-06-08T06:13:42.689Z,10.45
2019-06-08T06:16:11.537Z,10.38
2019-06-08T06:18:40.972Z,10.18
2019-06-08T06:21:12.117Z,10.75
2019-06-08T06:23:41.156Z,11.95
2019-06-08T06:26:09.891Z,11.63
2019-06-08T06:28:38.710Z,10.53
2019-06-08T06:31:07.405Z,12.03
2019-06-08T06:33:36.182Z,12.30
2019-06-08T06:36:04.997Z,11.10
2019-06-08T06:38:33.721Z,11.60
2019-06-08T06:41:02.440Z,10.63
2019-06-08T06:43:31.160Z,12.20
2019-06-08T06:45:59.907Z,11.30
2019-06-08T06:48:28.617Z,10.80
2019-06-08T06:50:57.326Z,10.83
2019-06-08T06:53:26.044Z,11.43
2019-06-08T06:55:54.752Z,11.17
2019-06-08T06:58:23.510Z,12.17
2019-06-08T07:00:53.758Z,11.97
2019-06-08T07:03:22.613Z,12.10
2019-06-08T07:05:51.963Z,11.87
2019-06-08T07:08:20.948Z,12.33
2019-06-08T07:10:50.814Z,11.83
2019-06-08T07:13:19.889Z,11.67
2019-06-08T07:15:51.527Z,11.83
2019-06-08T07:18:19.066Z,11.00
2019-06-08T07:20:48.111Z,11.10
2019-06-08T07:23:17.053Z,11.67
2019-06-08T07:25:46.283Z,11.37
2019-06-08T07:28:15.318Z,11.33
2019-06-08T07:30:44.035Z,11.80
2019-06-08T07:33:12.748Z,10.67
2019-06-08T07:35:41.466Z,11.00
2019-06-08T07:38:10.238Z,10.90
2019-06-08T07:40:38.939Z,10.67
2019-06-08T07:43:07.648Z,10.63
2019-06-08T07:45:36.373Z,9.63
2019-06-08T07:48:05.181Z,10.20
2019-06-08T07:50:33.942Z,9.83
2019-06-08T07:53:02.654Z,9.50
2019-06-08T07:55:31.359Z,9.30
2019-06-08T07:58:00.390Z,8.93
2019-06-08T08:00:29.222Z,8.63
2019-06-08T08:02:58.309Z,8.70
2019-06-08T08:05:27.150Z,8.33
2019-06-08T08:07:56.887Z,8.13
2019-06-08T08:10:25.743Z,8.00
2019-06-08T08:12:54.747Z,8.30
2019-06-08T08:15:23.771Z,8.13
2019-06-08T08:17:53.817Z,7.87
2019-06-08T08:20:22.668Z,7.23
2019-06-08T08:22:55.803Z,7.25
2019-06-08T08:25:21.812Z,7.67
2019-06-08T08:27:51.922Z,7.60
2019-06-08T08:30:21.164Z,7.53
2019-06-08T08:32:51.446Z,7.85
2019-06-08T08:35:20.322Z,8.08
2019-06-08T08:37:53.142Z,8.23
2019-06-08T08:40:19.521Z,7.90
2019-06-08T08:42:50.511Z,7.37
2019-06-08T08:45:19.364Z,7.72
2019-06-08T08:47:48.563Z,7.00
2019-06-08T08:50:18.468Z,7.62
2019-06-08T08:52:47.698Z,7.80
2019-06-08T08:55:20.306Z,7.62
2019-06-08T08:57:48.366Z,7.65
2019-06-08T09:00:18.255Z,7.47
2019-06-08T09:02:50.252Z,7.30
2019-06-08T09:05:18.201Z,7.22
2019-06-08T09:07:48.289Z,7.87
2019-06-08T09:10:18.348Z,7.40
2019-06-08T09:12:48.526Z,6.72
2019-06-08T09:15:19.247Z,6.83
2019-06-08T09:17:48.434Z,6.67
2019-06-08T09:20:19.329Z,6.20
2019-06-08T09:22:56.426Z,6.50
2019-06-08T09:25:18.828Z,6.30
2019-06-08T09:27:48.374Z,6.12
2019-06-08T09:30:18.267Z,6.47
2019-06-08T09:32:47.900Z,6.70
2019-06-08T09:35:18.625Z,6.00
2019-06-08T09:37:48.560Z,6.53
2019-06-08T09:40:17.508Z,6.42
2019-06-08T09:42:46.213Z,5.62
2019-06-08T09:45:14.907Z,6.12
2019-06-08T09:47:43.629Z,5.80
2019-06-08T09:50:13.026Z,5.90
2019-06-08T09:52:41.768Z,5.97
2019-06-08T09:55:10.713Z,5.42
2019-06-08T09:57:39.550Z,5.40
2019-06-08T10:00:18.085Z,4.97
2019-06-08T10:02:40.243Z,5.12
2019-06-08T10:05:08.955Z,4.90
2019-06-08T10:07:38.823Z,4.80
2019-06-08T10:10:09.869Z,5.10
2019-06-08T10:12:40.957Z,5.15
2019-06-08T10:15:10.264Z,5.75
2019-06-08T10:17:38.967Z,5.28
2019-06-08T10:20:10.009Z,5.30
2019-06-08T10:22:38.228Z,5.10
2019-06-08T10:25:11.137Z,5.22
2019-06-08T10:27:39.405Z,5.17
2019-06-08T10:30:10.614Z,5.30
2019-06-08T10:32:39.495Z,4.78
2019-06-08T10:35:10.518Z,4.60
2019-06-08T10:37:39.827Z,4.58
2019-06-08T10:40:09.817Z,4.40
2019-06-08T10:42:40.240Z,5.50
2019-06-08T10:45:13.120Z,4.78
2019-06-08T10:47:40.438Z,4.70
2019-06-08T10:50:15.152Z,4.80
2019-06-08T10:52:41.055Z,4.80
2019-06-08T10:55:12.090Z,5.17
2019-06-08T10:57:40.292Z,5.12
2019-06-08T11:00:20.225Z,4.60
2019-06-08T11:02:41.938Z,5.15
2019-06-08T11:05:13.943Z,4.92
2019-06-08T11:07:41.186Z,4.92
2019-06-08T11:10:12.425Z,4.50
2019-06-08T11:12:41.253Z,5.22
2019-06-08T11:15:11.843Z,4.92
2019-06-08T11:17:40.785Z,4.97
2019-06-08T11:20:13.009Z,5.22
2019-06-08T11:22:39.948Z,4.85
2019-06-08T11:25:15.683Z,5.22
2019-06-08T11:27:39.530Z,4.80
2019-06-08T11:30:14.199Z,4.70
2019-06-08T11:32:38.765Z,5.08
2019-06-08T11:35:12.375Z,4.95
2019-06-08T11:37:40.963Z,5.00
2019-06-08T11:40:12.400Z,4.70
2019-06-08T11:42:40.748Z,4.92
2019-06-08T11:45:12.631Z,5.00
2019-06-08T11:47:40.910Z,5.12
2019-06-08T11:50:13.060Z,5.30
2019-06-08T11:52:41.052Z,5.10
2019-06-08T11:55:12.515Z,5.25
2019-06-08T11:57:40.992Z,5.62
2019-06-08T12:00:24.258Z,4.75
2019-06-08T12:02:42.097Z,5.40
2019-06-08T12:05:12.946Z,5.25
2019-06-08T12:07:41.379Z,5.12
2019-06-08T12:10:12.513Z,4.90
2019-06-08T12:12:40.602Z,5.28
2019-06-08T12:15:11.571Z,4.92
2019-06-08T12:17:39.752Z,5.10
2019-06-08T12:20:12.826Z,5.00
2019-06-08T12:22:40.248Z,5.10
2019-06-08T12:25:10.287Z,5.20
2019-06-08T12:27:40.176Z,5.22
2019-06-08T12:30:17.333Z,5.72
2019-06-08T12:32:39.646Z,4.92
2019-06-08T12:35:10.678Z,5.10
2019-06-08T12:37:39.204Z,5.30
2019-06-08T12:40:11.694Z,5.17
2019-06-08T12:42:38.676Z,4.83
2019-06-08T12:45:07.680Z,4.92
2019-06-08T12:47:38.112Z,5.03
2019-06-08T12:50:09.052Z,4.85
2019-06-08T12:52:39.214Z,5.10
2019-06-08T12:55:14.321Z,5.40
2019-06-08T12:57:39.401Z,4.50
2019-06-08T13:00:11.110Z,4.85
2019-06-08T13:02:39.788Z,5.53
2019-06-08T13:05:13.307Z,5.03
2019-06-08T13:07:39.262Z,5.12
2019-06-08T13:10:08.959Z,5.12
2019-06-08T13:12:40.740Z,4.83
2019-06-08T13:15:10.098Z,5.08
2019-06-08T13:17:38.936Z,4.87
2019-06-08T13:20:10.641Z,4.30
2019-06-08T13:22:39.300Z,4.83
2019-06-08T13:25:21.077Z,4.72
2019-06-08T13:27:38.491Z,4.72
2019-06-08T13:30:07.800Z,4.62
2019-06-08T13:32:38.262Z,5.30
2019-06-08T13:35:08.346Z,4.67
2019-06-08T13:37:38.997Z,4.60
2019-06-08T13:40:08.290Z,4.90
2019-06-08T13:42:38.291Z,4.87
2019-06-08T13:45:07.998Z,4.85
2019-06-08T13:47:40.657Z,4.87
2019-06-08T13:50:11.082Z,5.17
2019-06-08T13:52:39.579Z,5.40
2019-06-08T13:55:09.391Z,4.70
2019-06-08T13:57:38.103Z,5.03
2019-06-08T14:00:08.640Z,5.47
2019-06-08T14:02:39.689Z,5.60
2019-06-08T14:05:08.515Z,5.25
2019-06-08T14:07:38.078Z,5.70
2019-06-08T14:10:09.653Z,5.53
2019-06-08T14:12:38.625Z,6.15
2019-06-08T14:15:08.539Z,5.37
2019-06-08T14:17:37.967Z,5.58
2019-06-08T14:20:08.029Z,6.05
2019-06-08T14:22:38.856Z,5.87
2019-06-08T14:25:10.500Z,5.67
2019-06-08T14:27:38.310Z,5.90
2019-06-08T14:30:08.592Z,5.70
2019-06-08T14:32:38.113Z,5.83
2019-06-08T14:35:08.730Z,6.08
2019-06-08T14:37:38.078Z,5.67
2019-06-08T14:40:08.382Z,6.28
2019-06-08T14:42:38.361Z,5.55
2019-06-08T14:45:10.854Z,6.10
2019-06-08T14:47:38.834Z,6.78
2019-06-08T14:50:08.447Z,6.75
2019-06-08T14:52:38.172Z,7.17
2019-06-08T14:55:08.103Z,6.25
2019-06-08T14:57:37.557Z,6.22
2019-06-08T15:00:12.165Z,5.87
2019-06-08T15:02:39.356Z,6.20
2019-06-08T15:05:08.081Z,6.03
2019-06-08T15:07:38.879Z,5.83
2019-06-08T15:10:09.798Z,6.08
2019-06-08T15:12:38.444Z,6.08
2019-06-08T15:15:10.942Z,7.20
2019-06-08T15:17:38.214Z,6.50
2019-06-08T15:20:10.135Z,5.78
2019-06-08T15:22:39.088Z,5.90
2019-06-08T15:25:10.995Z,7.12
2019-06-08T15:27:38.987Z,11.00
2019-06-08T15:30:08.033Z,6.55
2019-06-08T15:32:38.696Z,7.53
2019-06-08T15:35:08.029Z,6.25
2019-06-08T15:37:38.120Z,6.25
2019-06-08T15:40:08.657Z,6.40
2019-06-08T15:42:37.486Z,5.92
2019-06-08T15:45:08.305Z,6.25
2019-06-08T15:47:40.590Z,6.30
2019-06-08T15:50:08.850Z,6.35
2019-06-08T15:52:38.184Z,6.10
2019-06-08T15:55:10.956Z,6.12
2019-06-08T15:57:40.803Z,6.30
2019-06-08T16:00:10.184Z,6.20
2019-06-08T16:02:39.272Z,6.67
2019-06-08T16:05:09.288Z,5.70
2019-06-08T16:07:37.988Z,6.12
2019-06-08T16:10:08.206Z,6.03
2019-06-08T16:12:36.903Z,6.92
2019-06-08T16:15:07.018Z,5.80
2019-06-08T16:17:35.783Z,5.97
2019-06-08T16:20:05.103Z,5.67
2019-06-08T16:22:33.929Z,5.67
2019-06-08T16:25:02.645Z,5.58
2019-06-08T16:27:32.137Z,5.42
2019-06-08T16:30:08.634Z,5.97
2019-06-08T16:32:31.658Z,5.75
2019-06-08T16:35:00.390Z,5.83
2019-06-08T16:37:29.531Z,5.67
2019-06-08T16:39:58.342Z,5.45
2019-06-08T16:42:27.858Z,5.50
2019-06-08T16:44:56.898Z,5.72
2019-06-08T16:47:26.922Z,5.97
2019-06-08T16:49:56.036Z,5.53
2019-06-08T16:52:26.136Z,6.05
2019-06-08T16:54:56.615Z,5.25
2019-06-08T16:57:25.345Z,5.58
2019-06-08T16:59:54.098Z,5.60
2019-06-08T17:02:22.817Z,5.80
2019-06-08T17:04:51.570Z,6.55
2019-06-08T17:07:20.294Z,6.70
2019-06-08T17:09:49.009Z,6.85
2019-06-08T17:12:17.884Z,10.08
2019-06-08T17:14:46.626Z,9.63
2019-06-08T17:17:15.324Z,14.13
2019-06-08T17:19:44.060Z,9.93
2019-06-08T17:22:12.765Z,8.30
2019-06-08T17:24:41.549Z,7.07
2019-06-08T17:27:25.827Z,8.13
2019-06-08T17:29:41.005Z,9.60
2019-06-08T17:32:09.827Z,11.33
2019-06-08T17:34:38.565Z,11.17
2019-06-08T17:37:07.352Z,16.50
2019-06-08T17:39:36.077Z,14.30
2019-06-08T17:42:04.803Z,9.90
2019-06-08T17:44:34.921Z,7.50
2019-06-08T17:47:04.182Z,7.13
2019-06-08T17:49:32.957Z,6.47
2019-06-08T17:52:01.949Z,7.30
2019-06-08T17:54:30.719Z,6.93
2019-06-08T17:56:59.433Z,7.40
2019-06-08T17:59:28.150Z,8.83
2019-06-08T18:01:57.651Z,9.87
2019-06-08T18:04:28.099Z,7.23
2019-06-08T18:06:58.065Z,7.37
2019-06-08T18:09:28.122Z,7.40
2019-06-08T18:11:59.519Z,7.90
2019-06-08T18:14:30.664Z,6.57
2019-06-08T18:16:57.932Z,10.27
2019-06-08T18:19:29.377Z,6.67
2019-06-08T18:22:04.013Z,6.57
2019-06-08T18:24:31.625Z,9.87
2019-06-08T18:27:00.346Z,9.10
2019-06-08T18:29:29.091Z,9.63
2019-06-08T18:31:58.327Z,8.43
2019-06-08T18:34:28.489Z,6.97
2019-06-08T18:36:58.016Z,6.90
2019-06-08T18:39:28.935Z,6.40
2019-06-08T18:41:58.905Z,7.70
2019-06-08T18:44:28.591Z,8.30
2019-06-08T18:46:58.037Z,8.10
2019-06-08T18:49:28.765Z,8.13
2019-06-08T18:51:58.245Z,8.00
2019-06-08T18:54:27.988Z,8.37
2019-06-08T18:56:57.244Z,8.07
2019-06-08T18:59:28.389Z,7.43
2019-06-08T19:01:56.415Z,7.40
2019-06-08T19:04:30.047Z,7.03
2019-06-08T19:06:56.192Z,7.00
2019-06-08T19:09:25.410Z,7.13
2019-06-08T19:11:54.115Z,7.23
2019-06-08T19:14:22.881Z,7.93
2019-06-08T19:16:54.619Z,7.30
2019-06-08T19:19:22.032Z,6.87
2019-06-08T19:21:50.743Z,6.77
2019-06-08T19:24:19.490Z,6.80
2019-06-08T19:26:49.075Z,6.83
2019-06-08T19:29:19.452Z,7.40
2019-06-08T19:31:51.182Z,7.70
2019-06-08T19:34:18.708Z,9.13
2019-06-08T19:36:52.149Z,7.37
2019-06-08T19:39:18.099Z,6.50
2019-06-08T19:41:49.235Z,7.77
2019-06-08T19:44:18.309Z,7.43
2019-06-08T19:46:51.153Z,12.13
2019-06-08T19:49:17.838Z,10.30
2019-06-08T19:51:48.536Z,8.80
2019-06-08T19:54:18.352Z,7.80
2019-06-08T19:56:49.381Z,7.47
2019-06-08T19:59:18.383Z,8.60
2019-06-08T20:01:52.630Z,9.93
2019-06-08T20:04:18.735Z,11.50
2019-06-08T20:06:49.042Z,8.67
2019-06-08T20:09:18.029Z,8.40
2019-06-08T20:11:53.027Z,9.73
2019-06-08T20:14:18.744Z,9.80
2019-06-08T20:16:49.320Z,8.10
2019-06-08T20:19:17.889Z,7.60
2019-06-08T20:21:51.031Z,7.97
2019-06-08T20:24:18.433Z,7.20
2019-06-08T20:26:51.764Z,7.60
2019-06-08T20:29:20.079Z,10.43
2019-06-08T20:31:51.425Z,11.87
2019-06-08T20:34:19.677Z,10.30
2019-06-08T20:36:48.721Z,7.50
2019-06-08T20:39:18.149Z,6.83
2019-06-08T20:41:49.792Z,6.80
2019-06-08T20:44:17.378Z,7.13
2019-06-08T20:46:48.555Z,7.00
2019-06-08T20:49:17.210Z,7.03
2019-06-08T20:51:49.059Z,6.87
2019-06-08T20:54:17.246Z,7.23
2019-06-08T20:56:47.913Z,6.77
2019-06-08T20:59:29.570Z,6.70
2019-06-08T21:01:48.779Z,6.70
2019-06-08T21:04:18.215Z,7.40
2019-06-08T21:06:48.645Z,7.13
2019-06-08T21:09:18.599Z,6.97
2019-06-08T21:11:49.803Z,6.23
2019-06-08T21:14:17.988Z,6.70
2019-06-08T21:16:49.008Z,6.90
2019-06-08T21:19:17.489Z,7.30
2019-06-08T21:21:47.844Z,6.53
2019-06-08T21:24:17.306Z,7.07
2019-06-08T21:26:50.675Z,6.90
2019-06-08T21:29:17.603Z,6.70
2019-06-08T21:31:50.174Z,6.67
2019-06-08T21:34:18.134Z,6.87
2019-06-08T21:36:49.353Z,7.13
2019-06-08T21:39:17.457Z,6.53
2019-06-08T21:41:50.083Z,7.43
2019-06-08T21:44:16.593Z,6.50
2019-06-08T21:46:47.445Z,7.20
2019-06-08T21:49:18.198Z,7.67
2019-06-08T21:51:48.509Z,6.90
2019-06-08T21:54:17.585Z,6.87
2019-06-08T21:56:48.827Z,6.47
2019-06-08T21:59:18.221Z,6.97
2019-06-08T22:01:50.438Z,7.20
2019-06-08T22:04:18.522Z,6.70
2019-06-08T22:06:48.044Z,7.10
2019-06-08T22:09:17.660Z,7.40
2019-06-08T22:11:47.192Z,6.73
2019-06-08T22:14:15.941Z,7.00
2019-06-08T22:16:44.648Z,7.07
2019-06-08T22:19:13.423Z,6.97
2019-06-08T22:21:42.135Z,7.03
2019-06-08T22:24:10.855Z,6.63
2019-06-08T22:26:39.614Z,6.40
2019-06-08T22:29:08.323Z,6.40
2019-06-08T22:31:37.651Z,6.57
2019-06-08T22:34:06.432Z,6.10
2019-06-08T22:36:37.217Z,6.30
2019-06-08T22:39:08.077Z,6.07
2019-06-08T22:41:37.399Z,5.73
2019-06-08T22:44:08.292Z,5.83
2019-06-08T22:46:37.497Z,5.63
2019-06-08T22:49:08.014Z,5.50
2019-06-08T22:51:38.299Z,5.70
2019-06-08T22:54:07.999Z,5.87
2019-06-08T22:56:37.336Z,6.10
2019-06-08T22:59:08.988Z,5.53
2019-06-08T23:01:38.351Z,5.40
2019-06-08T23:04:08.971Z,6.40
2019-06-08T23:06:38.648Z,5.90
2019-06-08T23:09:08.842Z,5.67
2019-06-08T23:11:37.859Z,5.40
2019-06-08T23:14:12.869Z,6.20
2019-06-08T23:16:36.999Z,5.90
2019-06-08T23:19:08.035Z,5.70
2019-06-08T23:21:38.415Z,6.60
2019-06-08T23:24:08.480Z,5.73
2019-06-08T23:26:37.382Z,5.87
2019-06-08T23:29:07.809Z,5.93
2019-06-08T23:31:38.784Z,5.63
2019-06-08T23:34:09.956Z,5.63
2019-06-08T23:36:51.779Z,5.77
2019-06-08T23:39:08.755Z,5.80
2019-06-08T23:41:37.787Z,5.60
2019-06-08T23:44:07.806Z,5.83
2019-06-08T23:46:38.034Z,5.40
2019-06-08T23:49:07.762Z,6.67
2019-06-08T23:51:38.075Z,5.33
2019-06-08T23:54:11.999Z,5.50
2019-06-08T23:56:37.517Z,5.47
2019-06-08T23:59:07.260Z,5.80
